Aérodrome :
LOGIN :

S'inscrire | Disclaimer

   EN    FR    IT 

 










Légende :    VFR   VFR Marginal   IFR   IFR Intensif   IFR Très Intensif
Visi : 
Plafond : 
>= 8 km
>= 3000ft
5 à 8 km
1000 à 3000 ft
1500m à 5 km
500 à 1000 ft
800 à 1500m
200 à 500 ft
< 800m
< 200 ft
Symboles :   Orages  Brouillard  Fortes neiges  Fortes précipitations  Vent > 20 kt
SIGMETs :   Divers  Orages  Givrage  Turbulence  Onde Orograph.  Cendres Volcan.







- Altitude de l'aérodrome : 24 ft
- Code IATA : IBZ


LEIB - Ibiza

DERNIER METAR :
  • 210200Z 01006KT 350V050 9999 SCT012 SCT016 23/21 Q1013 NOSIG

METARs EXPIRÉS :
  • 210130Z 06008KT 9999 FEW012 24/21 Q1013 NOSIG
  • 210100Z 07009KT 9999 FEW012 SCT018 24/21 Q1013 NOSIG
  • 210030Z 06008KT 9999 SCT012 SCT018 24/22 Q1013 NOSIG
  • 210000Z 07011KT 9999 SCT012 SCT018 24/22 Q1014 NOSIG
  • 202330Z 07007KT 040V100 9999 FEW014 SCT020 24/21 Q1014 NOSIG

TAF TAF LEIB
Valide du 20 à 21h jusqu'au 21 à 21h UTC


202000Z 2021/2121 08010KT 9999 SCT015 TX28/2112Z TN21/2105Z
PROB40
TEMPO 2023/2106 4000 BR BKN008
BECMG 2109/2111 28008KT
Pas de NOTAMs connus pour ce terrain.



MET'MAP, la Météo Aéronautique d'un coup d'oeil ! - Copyright ORBIFLY Décembre 2007 - Disclaimer

ORBIFLY MET'MAP TEAM :

Programmation & Développement : Alexandra Zaïnal
Conception & Développement : Baudouin d'Aumeries
Co-Programmation & Développement : Marc-Olivier Méhu
Soutien technique & logistique : Manuel Goepfert

Contact : metmap@orbifly.com




SOURCES & CREDITS :

   NOAA